Time;durP1;ratioP1;P1;durP2;ratioP2;P2;SDS_P1;SDS_P2;PMS_P1;PMS_P2;Temp;Humidity;BMP_temperature;BMP_pressure;BME280_temperature;BME280_humidity;BME280_pressure;Samples;Min_cycle;Max_cycle;Signal;HPM_P1;HPM_P2
2021/11/12 00:04:23;;;;;;;15.93;12.88;;;3.50;99.90;;;;;;7366405;19;20325;-80
2021/11/12 00:13:05;;;;;;;15.43;12.10;;;3.60;99.90;;;;;;7390475;19;20336;-80
2021/11/12 00:28:37;;;;;;;11.25;10.15;;;3.60;99.90;;;;;;7390299;19;20336;-80
2021/11/12 00:55:25;;;;;;;18.00;13.35;;;3.60;99.90;;;;;;7283372;19;2004535;-80
2021/11/12 00:57:51;;;;;;;18.95;14.10;;;3.40;99.90;;;;;;7385310;19;20406;-80
2021/11/12 01:00:17;;;;;;;16.52;13.93;;;3.50;99.90;;;;;;7387121;19;20324;-80
2021/11/12 01:02:43;;;;;;;16.58;13.15;;;3.40;99.90;;;;;;7385952;19;20325;-78
2021/11/12 01:08:25;;;;;;;13.38;11.30;;;3.40;99.90;;;;;;7388678;19;20317;-80
2021/11/12 01:10:54;;;;;;;14.05;11.82;;;3.50;99.90;;;;;;7386834;19;20324;-80
2021/11/12 01:13:25;;;;;;;17.08;12.85;;;3.50;99.90;;;;;;7366635;19;20325;-80
2021/11/12 01:15:54;;;;;;;16.08;12.77;;;3.60;99.90;;;;;;7388128;19;20308;-80
2021/11/12 01:18:23;;;;;;;16.65;13.25;;;3.60;99.90;;;;;;7368055;19;20323;-80
2021/11/12 01:20:54;;;;;;;20.42;14.80;;;3.50;99.90;;;;;;7385723;19;20831;-81
2021/11/12 01:23:32;;;;;;;17.45;13.27;;;3.50;99.90;;;;;;7387512;19;20313;-79
2021/11/12 01:25:58;;;;;;;14.65;12.75;;;3.50;99.90;;;;;;7384694;19;20327;-79
2021/11/12 01:28:24;;;;;;;13.80;12.15;;;3.60;99.90;;;;;;7390810;19;20388;-80
2021/11/12 01:30:50;;;;;;;13.63;10.93;;;3.60;99.90;;;;;;7392488;19;20863;-80
2021/11/12 01:33:16;;;;;;;14.60;12.75;;;3.40;99.90;;;;;;7394847;19;20650;-79
2021/11/12 01:42:08;;;;;;;14.10;11.93;;;3.60;99.90;;;;;;7371965;19;20320;-81
2021/11/12 01:44:41;;;;;;;19.58;14.57;;;3.50;99.90;;;;;;7377617;19;20396;-81
2021/11/12 01:50:07;;;;;;;14.73;11.10;;;3.60;99.90;;;;;;7364816;19;20357;-81
2021/11/12 01:52:42;;;;;;;17.15;13.65;;;3.60;99.90;;;;;;7365866;19;20852;-81
2021/11/12 01:55:15;;;;;;;14.40;12.10;;;3.60;99.90;;;;;;7366067;19;20297;-81
2021/11/12 01:57:52;;;;;;;16.67;13.73;;;3.70;99.90;;;;;;7366799;19;20325;-81
2021/11/12 02:00:21;;;;;;;14.40;11.43;;;3.60;99.90;;;;;;7369413;19;20824;-81
2021/11/12 02:02:49;;;;;;;12.88;10.00;;;3.60;99.90;;;;;;7361539;19;20320;-81
2021/11/12 02:05:17;;;;;;;17.10;12.30;;;3.70;99.90;;;;;;7372345;19;20966;-81
2021/11/12 02:07:45;;;;;;;15.75;13.10;;;3.70;99.90;;;;;;7371898;19;21383;-81
2021/11/12 02:10:16;;;;;;;14.73;12.43;;;3.70;99.90;;;;;;7373191;19;20328;-80
2021/11/12 02:15:30;;;;;;;16.10;11.38;;;3.80;99.90;;;;;;7371317;19;20384;-81
2021/11/12 02:18:14;;;;;;;14.80;12.43;;;3.60;99.90;;;;;;7354656;19;20340;-80
2021/11/12 02:21:04;;;;;;;16.30;12.68;;;3.70;99.90;;;;;;7270158;19;20381;-80
2021/11/12 02:24:05;;;;;;;16.10;13.05;;;3.70;99.90;;;;;;7234080;19;2004493;-79
2021/11/12 02:26:37;;;;;;;16.20;13.07;;;3.70;99.90;;;;;;7267837;19;2004271;-80
2021/11/12 02:29:10;;;;;;;18.95;13.82;;;3.70;99.90;;;;;;7332153;19;20337;-80
2021/11/12 02:31:40;;;;;;;16.60;13.48;;;3.60;99.90;;;;;;7332758;19;20336;-80
2021/11/12 02:34:12;;;;;;;15.80;12.45;;;3.60;99.90;;;;;;7363638;19;20312;-80
2021/11/12 02:36:49;;;;;;;13.63;12.02;;;3.50;99.90;;;;;;7369846;19;20410;-80
2021/11/12 02:39:18;;;;;;;16.43;12.07;;;3.50;99.90;;;;;;7352122;19;20305;-80
2021/11/12 02:41:49;;;;;;;14.32;11.80;;;3.40;99.90;;;;;;7325466;19;20337;-79
2021/11/12 02:44:20;;;;;;;12.05;10.63;;;3.50;99.90;;;;;;7301723;19;20332;-80
2021/11/12 02:46:53;;;;;;;13.90;10.13;;;3.50;99.90;;;;;;7341044;19;20348;-80
2021/11/12 02:49:32;;;;;;;14.77;11.60;;;3.50;99.90;;;;;;7239245;19;2004541;-80
2021/11/12 02:52:14;;;;;;;10.35;9.23;;;3.60;99.90;;;;;;7336275;19;20300;-80
2021/11/12 02:54:54;;;;;;;15.75;11.77;;;3.60;99.90;;;;;;7352156;19;20324;-80
2021/11/12 02:57:35;;;;;;;14.15;11.10;;;3.60;99.90;;;;;;7312952;19;20312;-80
2021/11/12 03:00:18;;;;;;;13.35;11.85;;;3.70;99.90;;;;;;7380206;19;20356;-81
2021/11/12 03:03:07;;;;;;;13.30;11.90;;;3.70;99.90;;;;;;7356514;19;20345;-80
2021/11/12 03:05:53;;;;;;;14.85;12.40;;;3.70;99.90;;;;;;7242167;19;2004534;-80
2021/11/12 03:08:23;;;;;;;15.15;11.98;;;3.70;99.90;;;;;;7207910;19;2004453;-80
2021/11/12 03:11:02;;;;;;;13.98;11.63;;;3.60;99.90;;;;;;7330362;19;20329;-80
2021/11/12 03:13:36;;;;;;;16.70;12.27;;;3.50;99.90;;;;;;7232033;19;2004620;-80
2021/11/12 03:16:16;;;;;;;14.88;11.00;;;3.40;99.90;;;;;;7218915;19;2004253;-80
2021/11/12 03:19:00;;;;;;;14.13;11.45;;;3.40;99.90;;;;;;7222357;19;2004416;-80
2021/11/12 03:21:41;;;;;;;11.63;10.15;;;3.50;99.90;;;;;;7231213;19;2004487;-80
2021/11/12 03:25:08;;;;;;;12.02;9.75;;;3.50;99.90;;;;;;7324207;19;20400;-80
2021/11/12 04:20:37;;;;;;;11.30;10.10;;;3.60;99.90;;;;;;7209969;19;2004441;-80
2021/11/12 04:30:39;;;;;;;12.73;11.40;;;3.70;99.90;;;;;;7346021;19;20320;-80
2021/11/12 05:10:58;;;;;;;11.50;8.88;;;3.70;99.90;;;;;;7259275;19;2004586;-80
2021/11/12 05:50:19;;;;;;;8.02;7.20;;;4.00;99.90;;;;;;7409981;19;20384;-81
2021/11/12 07:24:21;;;;;;;8.48;7.43;;;4.50;99.90;;;;;;7339802;19;21173;-80
2021/11/12 07:51:38;;;;;;;9.90;8.60;;;4.70;99.90;;;;;;7386503;19;20328;-83
2021/11/12 07:54:20;;;;;;;8.00;7.00;;;4.70;99.90;;;;;;7320650;19;20328;-81
2021/11/12 07:56:51;;;;;;;9.55;8.27;;;4.80;99.90;;;;;;7309070;19;20345;-81
2021/11/12 07:59:33;;;;;;;8.48;7.50;;;4.80;99.90;;;;;;7353004;19;20324;-80
2021/11/12 08:02:06;;;;;;;10.65;8.73;;;4.80;99.90;;;;;;7343051;19;21066;-80
2021/11/12 08:04:35;;;;;;;11.82;8.70;;;4.90;99.90;;;;;;7345922;19;20842;-80
2021/11/12 08:07:02;;;;;;;10.20;8.98;;;4.90;99.90;;;;;;7350081;19;20336;-80
2021/11/12 08:09:38;;;;;;;8.05;7.32;;;4.90;99.90;;;;;;7278574;19;20725;-80
2021/11/12 08:12:20;;;;;;;9.70;8.40;;;4.90;99.90;;;;;;7347293;19;20358;-80
2021/11/12 08:18:12;;;;;;;8.68;7.85;;;5.00;99.90;;;;;;7209671;19;2004478;-80
2021/11/12 08:20:50;;;;;;;9.38;8.38;;;5.10;99.90;;;;;;7266042;19;2004453;-83
2021/11/12 08:23:41;;;;;;;9.00;7.63;;;5.20;99.90;;;;;;7245481;19;2004423;-81
2021/11/12 08:27:33;;;;;;;9.20;8.30;;;5.20;99.90;;;;;;7150534;19;2004389;-78
2021/11/12 08:51:45;;;;;;;11.85;9.05;;;5.20;99.90;;;;;;7334205;19;21027;-81
2021/11/12 08:58:34;;;;;;;9.00;8.07;;;5.40;99.90;;;;;;7318482;19;20370;-79
2021/11/12 09:01:37;;;;;;;10.70;8.45;;;5.40;99.90;;;;;;7175062;19;2004624;-79
2021/11/12 09:04:34;;;;;;;9.95;8.38;;;5.40;99.90;;;;;;7317977;19;20336;-80
2021/11/12 09:07:09;;;;;;;7.88;7.18;;;5.50;99.90;;;;;;7234366;19;2004392;-80
2021/11/12 09:09:39;;;;;;;10.50;9.02;;;5.50;99.90;;;;;;7356112;19;20323;-80
2021/11/12 09:12:24;;;;;;;16.43;8.93;;;5.50;99.90;;;;;;7329060;19;20672;-80
2021/11/12 09:15:10;;;;;;;8.95;7.82;;;5.50;99.90;;;;;;7330420;19;20337;-80
2021/11/12 09:17:46;;;;;;;12.30;9.23;;;5.60;99.90;;;;;;7353112;19;20475;-79
2021/11/12 09:20:17;;;;;;;9.15;6.82;;;5.60;99.90;;;;;;7355632;19;20904;-79
2021/11/12 09:22:53;;;;;;;11.70;9.38;;;5.70;99.90;;;;;;7366864;19;20403;-80
2021/11/12 09:25:22;;;;;;;11.85;8.40;;;5.80;99.90;;;;;;7307213;19;20824;-79
2021/11/12 09:27:54;;;;;;;10.93;8.93;;;5.90;99.90;;;;;;7343693;19;20671;-80
2021/11/12 09:30:34;;;;;;;11.13;8.75;;;6.00;99.90;;;;;;7310880;19;20347;-80
2021/11/12 09:33:16;;;;;;;10.30;8.50;;;6.10;99.90;;;;;;7261036;19;2004952;-80
2021/11/12 09:35:52;;;;;;;10.25;9.05;;;6.10;99.90;;;;;;7270760;19;2004344;-79
2021/11/12 09:38:32;;;;;;;13.77;10.18;;;6.20;99.90;;;;;;7371479;19;20333;-79
2021/11/12 09:41:01;;;;;;;14.37;10.47;;;6.30;99.90;;;;;;7279421;19;2004389;-80
2021/11/12 09:43:30;;;;;;;9.70;8.40;;;6.40;99.90;;;;;;7360189;19;20361;-79
2021/11/12 09:46:01;;;;;;;11.07;9.07;;;6.50;99.90;;;;;;7333561;19;20839;-79
2021/11/12 09:48:33;;;;;;;10.23;8.63;;;6.50;99.90;;;;;;7350342;19;20347;-79
2021/11/12 09:51:09;;;;;;;11.30;8.98;;;6.60;99.90;;;;;;7341585;19;20333;-79
2021/11/12 09:53:39;;;;;;;11.52;9.23;;;6.70;99.90;;;;;;7343959;19;20392;-82
2021/11/12 09:56:08;;;;;;;13.88;10.70;;;6.80;99.90;;;;;;7341795;19;20313;-79
2021/11/12 09:58:38;;;;;;;13.70;9.20;;;6.90;99.90;;;;;;7357192;19;20329;-79
2021/11/12 10:01:15;;;;;;;11.43;9.52;;;7.00;99.90;;;;;;7352715;19;20320;-80
2021/11/12 10:03:45;;;;;;;14.37;10.37;;;7.10;99.90;;;;;;7328764;19;20431;-80
2021/11/12 10:12:27;;;;;;;14.82;10.52;;;7.20;99.90;;;;;;7339747;19;20328;-82
2021/11/12 10:29:53;;;;;;;13.75;11.70;;;7.70;99.90;;;;;;7337560;19;20309;-81
2021/11/12 10:35:49;;;;;;;15.15;10.82;;;7.70;99.90;;;;;;7233533;19;2004593;-81
2021/11/12 10:41:50;;;;;;;16.67;9.60;;;7.90;99.90;;;;;;7187738;19;2004393;-81
2021/11/12 10:44:46;;;;;;;12.95;9.70;;;7.90;99.90;;;;;;7235844;19;2004567;-80
2021/11/12 10:47:16;;;;;;;13.75;10.50;;;8.10;99.90;;;;;;7224504;19;2004413;-81
2021/11/12 10:49:51;;;;;;;10.73;9.18;;;8.20;99.90;;;;;;7321969;19;21114;-81
2021/11/12 10:56:09;;;;;;;17.02;13.25;;;8.80;99.90;;;;;;7265851;19;20342;-80
2021/11/12 10:59:08;;;;;;;14.13;10.52;;;9.10;99.90;;;;;;7257559;19;2004440;-80
2021/11/12 11:02:06;;;;;;;11.32;9.25;;;9.50;99.90;;;;;;7232660;19;2004209;-80
2021/11/12 11:05:12;;;;;;;13.98;10.75;;;9.90;99.90;;;;;;7162443;19;2004374;-81
2021/11/12 11:08:26;;;;;;;12.88;9.52;;;10.10;99.90;;;;;;7269821;19;20304;-78
2021/11/12 11:12:13;;;;;;;12.15;9.90;;;10.60;99.90;;;;;;7282341;19;20345;-81
2021/11/12 11:15:18;;;;;;;10.27;8.43;;;10.90;99.90;;;;;;7338840;19;20736;-78
2021/11/12 11:18:20;;;;;;;8.15;7.32;;;11.10;99.90;;;;;;7219153;19;2004437;-82
2021/11/12 11:24:46;;;;;;;10.40;8.18;;;11.20;99.90;;;;;;7255612;19;2004446;-85
2021/11/12 11:27:32;;;;;;;11.43;8.40;;;11.30;99.90;;;;;;7225908;19;2004261;-83
2021/11/12 11:30:01;;;;;;;9.68;7.75;;;11.50;99.90;;;;;;7336042;19;20312;-82
2021/11/12 11:32:28;;;;;;;8.95;7.30;;;11.60;99.90;;;;;;7332698;19;20729;-81
2021/11/12 11:34:54;;;;;;;8.75;7.38;;;11.40;99.90;;;;;;7358648;19;20288;-81
2021/11/12 11:37:33;;;;;;;10.48;7.40;;;11.40;99.90;;;;;;7347334;19;20692;-81
2021/11/12 11:43:11;;;;;;;9.13;6.88;;;11.50;99.90;;;;;;7250505;19;20359;-81
2021/11/12 11:45:57;;;;;;;6.60;5.68;;;11.70;99.90;;;;;;7360110;19;20344;-84
2021/11/12 11:48:41;;;;;;;6.72;5.78;;;11.70;99.90;;;;;;7260170;19;2004421;-83
2021/11/12 11:54:59;;;;;;;7.70;6.10;;;11.90;99.90;;;;;;7306123;19;20365;-84
2021/11/12 11:58:55;;;;;;;8.32;5.65;;;12.10;99.90;;;;;;7413451;19;20365;-85
2021/11/12 12:02:26;;;;;;;6.85;5.80;;;12.20;99.90;;;;;;7385031;19;20367;-85
2021/11/12 12:05:16;;;;;;;6.20;5.60;;;12.00;99.90;;;;;;7287613;19;2004507;-82
2021/11/12 12:11:43;;;;;;;8.45;6.25;;;12.80;99.90;;;;;;7264137;19;2004422;-85
2021/11/12 12:14:43;;;;;;;7.68;6.22;;;13.10;99.90;;;;;;7377368;19;20320;-84
2021/11/12 12:17:25;;;;;;;7.18;5.43;;;13.30;99.90;;;;;;7388252;19;20320;-83
2021/11/12 12:39:40;;;;;;;6.47;5.25;;;12.30;99.90;;;;;;7312971;19;2004471;-83
2021/11/12 15:35:41;;;;;;;9.13;7.50;;;8.30;99.90;;;;;;7396651;19;20404;-81
2021/11/12 15:38:31;;;;;;;11.98;8.25;;;8.00;99.90;;;;;;7395634;19;20334;-82
2021/11/12 15:41:05;;;;;;;11.63;8.70;;;8.00;99.90;;;;;;7400955;19;20375;-81
2021/11/12 21:54:06;;;;;;;18.67;13.60;;;2.90;99.90;;;;;;7293168;19;20312;-82
2021/11/12 22:18:33;;;;;;;16.45;12.90;;;2.90;99.90;;;;;;7398357;19;20360;-82
2021/11/12 22:21:45;;;;;;;17.25;14.35;;;2.90;99.90;;;;;;7285676;19;20332;-82
2021/11/12 22:24:30;;;;;;;16.88;13.32;;;2.90;99.90;;;;;;7108632;19;2004281;-82
2021/11/12 22:32:54;;;;;;;39.65;29.38;;;2.80;99.90;;;;;;7347032;19;20328;-79
2021/11/12 22:35:24;;;;;;;24.73;18.83;;;2.80;99.90;;;;;;7375357;19;20342;-79
2021/11/12 22:38:00;;;;;;;15.45;12.23;;;2.80;99.90;;;;;;7264526;19;2005317;-79
2021/11/12 22:40:48;;;;;;;18.13;14.57;;;2.80;99.90;;;;;;7238230;19;20330;-81
2021/11/12 22:44:03;;;;;;;14.30;12.00;;;2.80;99.90;;;;;;7131653;19;2003996;-84
